Time;durP1;ratioP1;P1;durP2;ratioP2;P2;SDS_P1;SDS_P2;PMS_P1;PMS_P2;Temp;Humidity;BMP_temperature;BMP_pressure;BME280_temperature;BME280_humidity;BME280_pressure;Samples;Min_cycle;Max_cycle;Signal;HPM_P1;HPM_P2
2021/12/12 00:00:31;;;;;;;3.88;2.92;;;21.30;48.20;;;;;;5084689;28;20044;-74
2021/12/12 00:03:02;;;;;;;4.30;2.58;;;21.30;48.10;;;;;;5085451;28;20059;-75
2021/12/12 00:05:38;;;;;;;5.05;2.60;;;21.30;48.10;;;;;;5088382;28;20460;-74
2021/12/12 00:08:05;;;;;;;4.53;3.15;;;21.30;48.10;;;;;;5084815;28;20059;-75
2021/12/12 00:10:33;;;;;;;3.67;2.70;;;21.30;48.10;;;;;;5086140;28;20059;-72
2021/12/12 00:13:05;;;;;;;4.28;2.83;;;21.30;48.10;;;;;;5097910;28;20035;-75
2021/12/12 00:15:31;;;;;;;5.28;2.83;;;21.30;48.10;;;;;;5103501;28;20185;-75
2021/12/12 00:17:57;;;;;;;4.40;2.90;;;21.30;48.00;;;;;;5136341;27;20068;-73
2021/12/12 00:20:27;;;;;;;4.05;2.80;;;21.30;48.00;;;;;;5104645;28;20043;-71
2021/12/12 00:22:58;;;;;;;4.57;3.10;;;21.30;48.00;;;;;;5091681;28;20044;-74
2021/12/12 00:25:29;;;;;;;4.47;3.03;;;21.30;48.00;;;;;;5110913;28;20156;-75
2021/12/12 00:27:54;;;;;;;4.63;2.75;;;21.30;48.00;;;;;;5103119;28;20161;-70
2021/12/12 00:30:20;;;;;;;4.50;3.05;;;21.30;48.00;;;;;;5102833;28;20051;-73
2021/12/12 00:32:46;;;;;;;5.13;2.75;;;21.30;48.00;;;;;;5102643;28;20705;-70
2021/12/12 00:35:14;;;;;;;3.88;2.70;;;21.30;48.00;;;;;;5105352;28;20137;-75
2021/12/12 00:37:40;;;;;;;4.43;2.90;;;21.30;48.00;;;;;;5083395;28;20047;-75
2021/12/12 00:40:21;;;;;;;5.13;2.95;;;21.30;48.00;;;;;;5098166;28;20039;-73
2021/12/12 00:42:47;;;;;;;4.13;2.75;;;21.30;48.00;;;;;;5092907;28;20048;-75
2021/12/12 00:45:14;;;;;;;4.18;3.10;;;21.30;48.00;;;;;;5093005;28;20581;-74
2021/12/12 00:47:41;;;;;;;5.97;3.23;;;21.30;47.90;;;;;;5102830;28;20043;-75
2021/12/12 00:50:29;;;;;;;4.25;3.00;;;21.30;47.90;;;;;;5104925;28;20079;-74
2021/12/12 00:52:57;;;;;;;3.95;2.97;;;21.30;47.90;;;;;;5093638;28;20118;-73
2021/12/12 00:55:23;;;;;;;4.07;2.92;;;21.30;47.90;;;;;;5102815;28;20035;-74
2021/12/12 00:57:53;;;;;;;4.63;3.35;;;21.30;47.90;;;;;;5089006;27;20444;-75
2021/12/12 01:00:22;;;;;;;5.07;3.30;;;21.30;47.80;;;;;;5087394;28;20074;-72
2021/12/12 01:02:49;;;;;;;4.03;3.17;;;21.30;47.80;;;;;;5095801;27;20048;-74
2021/12/12 01:05:15;;;;;;;4.75;3.25;;;21.30;47.70;;;;;;5107043;28;20050;-73
2021/12/12 01:07:44;;;;;;;4.32;3.10;;;21.30;47.80;;;;;;5089094;27;20078;-73
2021/12/12 01:10:20;;;;;;;5.20;3.13;;;21.30;47.80;;;;;;5087497;28;20765;-74
2021/12/12 01:12:46;;;;;;;4.38;3.13;;;21.30;47.70;;;;;;5087841;28;20066;-73
2021/12/12 01:15:30;;;;;;;5.28;3.08;;;21.30;47.70;;;;;;5094685;28;20047;-74
2021/12/12 01:17:59;;;;;;;4.72;3.03;;;21.30;47.70;;;;;;5079169;28;20047;-69
2021/12/12 01:20:49;;;;;;;4.30;3.10;;;21.30;47.70;;;;;;5106765;28;20542;-69
2021/12/12 01:23:40;;;;;;;5.20;3.28;;;21.30;47.70;;;;;;5108341;28;20668;-74
2021/12/12 01:26:08;;;;;;;4.43;3.08;;;21.30;47.50;;;;;;5090996;28;20062;-72
2021/12/12 01:28:37;;;;;;;4.70;2.90;;;21.30;47.60;;;;;;5088954;28;20084;-75
2021/12/12 01:31:07;;;;;;;4.57;3.05;;;21.30;48.30;;;;;;5101343;28;20098;-73
2021/12/12 01:33:35;;;;;;;4.32;3.28;;;21.30;47.60;;;;;;5087876;28;20086;-72
2021/12/12 01:36:08;;;;;;;4.72;2.90;;;21.30;47.50;;;;;;5133972;27;20055;-73
2021/12/12 01:38:56;;;;;;;3.90;2.83;;;21.30;47.60;;;;;;5088103;28;20055;-74
2021/12/12 01:41:37;;;;;;;5.88;3.17;;;21.30;47.50;;;;;;5088985;28;20134;-74
2021/12/12 01:44:11;;;;;;;5.18;3.03;;;21.30;47.50;;;;;;5091535;28;20047;-73
2021/12/12 01:46:46;;;;;;;5.47;3.03;;;21.30;47.50;;;;;;5100001;28;20040;-73
2021/12/12 01:49:23;;;;;;;3.88;2.80;;;21.30;47.50;;;;;;5069827;28;20556;-73
2021/12/12 01:51:50;;;;;;;5.32;3.13;;;21.30;47.40;;;;;;5091041;28;20683;-73
2021/12/12 01:54:25;;;;;;;3.95;3.00;;;21.30;47.50;;;;;;5107554;28;20487;-72
2021/12/12 01:56:59;;;;;;;4.25;2.90;;;21.30;47.40;;;;;;5093265;28;20403;-74
2021/12/12 01:59:31;;;;;;;5.13;2.70;;;21.30;47.50;;;;;;5086915;28;20228;-74
2021/12/12 02:02:06;;;;;;;5.75;3.53;;;21.30;47.40;;;;;;5088133;28;20117;-75
2021/12/12 02:04:43;;;;;;;5.07;2.90;;;21.30;47.40;;;;;;5088343;28;20044;-72
2021/12/12 02:07:10;;;;;;;6.88;2.78;;;21.30;47.40;;;;;;5091469;28;20529;-74
2021/12/12 02:09:37;;;;;;;4.03;2.70;;;21.30;47.40;;;;;;5085473;28;20057;-75
2021/12/12 02:12:04;;;;;;;5.50;3.05;;;21.30;47.40;;;;;;5098725;28;20403;-74
2021/12/12 02:14:34;;;;;;;4.43;2.95;;;21.30;47.40;;;;;;5105909;28;20483;-74
2021/12/12 02:17:13;;;;;;;4.82;2.88;;;21.30;47.40;;;;;;5094536;28;20066;-74
2021/12/12 02:19:55;;;;;;;6.57;3.22;;;21.30;47.40;;;;;;5095751;28;20055;-75
2021/12/12 02:22:37;;;;;;;7.28;3.00;;;21.30;47.40;;;;;;5091815;28;20040;-74
2021/12/12 02:36:21;;;;;;;4.07;2.83;;;21.30;47.30;;;;;;5098492;28;20116;-73
2021/12/12 02:38:50;;;;;;;5.90;2.95;;;21.30;47.30;;;;;;5087715;28;20204;-74
2021/12/12 02:41:18;;;;;;;3.55;3.03;;;21.30;47.30;;;;;;5088045;28;20051;-72
2021/12/12 02:43:50;;;;;;;3.75;2.90;;;21.30;48.00;;;;;;5105472;28;20040;-74
2021/12/12 02:46:22;;;;;;;3.65;2.70;;;21.30;47.20;;;;;;5099378;28;20116;-74
2021/12/12 02:48:51;;;;;;;4.85;2.80;;;21.30;47.30;;;;;;5085444;28;20561;-73
2021/12/12 02:51:19;;;;;;;3.83;2.78;;;21.30;47.20;;;;;;5105406;28;20070;-73
2021/12/12 02:53:52;;;;;;;4.32;2.90;;;21.30;47.20;;;;;;5107376;28;20608;-74
2021/12/12 02:56:23;;;;;;;5.25;2.85;;;21.30;47.20;;;;;;5097763;28;20028;-75
2021/12/12 02:58:50;;;;;;;4.25;2.78;;;21.30;47.30;;;;;;5086940;28;20047;-75
2021/12/12 03:01:28;;;;;;;5.20;2.95;;;21.30;47.20;;;;;;5086821;28;20066;-74
2021/12/12 03:03:54;;;;;;;3.95;2.65;;;21.30;47.10;;;;;;5104086;28;20043;-74
2021/12/12 03:06:28;;;;;;;4.68;2.80;;;21.30;47.30;;;;;;5096235;28;20055;-75
2021/12/12 03:09:05;;;;;;;4.88;3.05;;;21.30;47.30;;;;;;5084577;28;20436;-74
2021/12/12 03:11:30;;;;;;;4.32;2.72;;;21.30;47.20;;;;;;5085894;28;20097;-73
2021/12/12 03:13:56;;;;;;;6.18;2.90;;;21.30;47.20;;;;;;5085438;28;20127;-71
2021/12/12 03:16:22;;;;;;;4.75;2.65;;;21.30;47.10;;;;;;5121965;27;20102;-70
2021/12/12 03:18:48;;;;;;;4.65;2.85;;;21.30;47.10;;;;;;5068881;28;20040;-71
2021/12/12 03:21:29;;;;;;;4.65;2.78;;;21.30;47.10;;;;;;5084587;28;20048;-73
2021/12/12 03:23:56;;;;;;;4.20;2.90;;;21.30;47.10;;;;;;5084326;28;20086;-72
2021/12/12 03:26:22;;;;;;;3.85;2.50;;;21.30;47.10;;;;;;5102408;28;20047;-75
2021/12/12 03:28:51;;;;;;;4.53;2.78;;;21.30;47.10;;;;;;5101161;28;20082;-75
2021/12/12 03:31:24;;;;;;;4.65;2.80;;;21.30;47.10;;;;;;5083711;28;20052;-74
2021/12/12 03:33:50;;;;;;;5.53;3.17;;;21.30;47.10;;;;;;5086383;28;20509;-74
2021/12/12 03:36:17;;;;;;;4.75;2.72;;;21.30;47.10;;;;;;5097159;28;20100;-74
2021/12/12 03:38:49;;;;;;;3.78;2.63;;;21.30;47.10;;;;;;5085307;28;20091;-75
2021/12/12 03:41:19;;;;;;;4.57;2.95;;;21.30;47.00;;;;;;5086296;28;20073;-74
2021/12/12 03:43:53;;;;;;;4.35;2.80;;;21.30;47.10;;;;;;5083110;28;20049;-71
2021/12/12 03:46:19;;;;;;;3.58;2.22;;;21.30;47.00;;;;;;5093161;28;20709;-74
2021/12/12 03:48:47;;;;;;;4.45;2.90;;;21.30;47.10;;;;;;5094935;28;20099;-71
2021/12/12 03:51:17;;;;;;;3.80;2.58;;;21.30;47.00;;;;;;5084123;28;20042;-74
2021/12/12 03:53:43;;;;;;;3.72;2.40;;;21.30;47.00;;;;;;5097774;28;20089;-75
2021/12/12 03:56:11;;;;;;;4.07;2.75;;;21.30;46.90;;;;;;5102308;28;20480;-72
2021/12/12 03:58:37;;;;;;;4.13;2.50;;;21.30;46.90;;;;;;5105295;28;20051;-74
2021/12/12 04:01:15;;;;;;;5.00;2.70;;;21.30;46.90;;;;;;5085502;28;20044;-74
2021/12/12 04:03:43;;;;;;;3.80;2.40;;;21.30;46.90;;;;;;5085144;28;20051;-71
2021/12/12 04:06:13;;;;;;;4.07;2.45;;;21.30;46.90;;;;;;5098087;28;20466;-74
2021/12/12 04:08:43;;;;;;;4.20;2.50;;;21.30;46.80;;;;;;5084542;28;20036;-74
2021/12/12 04:11:25;;;;;;;4.05;2.50;;;21.30;46.90;;;;;;5084140;28;20119;-72
2021/12/12 04:13:53;;;;;;;5.18;2.88;;;21.30;46.80;;;;;;5083621;28;20063;-75
2021/12/12 04:16:19;;;;;;;;;;;21.30;46.80;;;;;;5101212;28;20383;-72
2021/12/12 04:18:45;;;;;;;3.92;2.45;;;21.30;46.80;;;;;;5105056;28;19923;-74
2021/12/12 04:21:12;;;;;;;3.03;2.30;;;21.30;46.80;;;;;;5087368;28;20071;-73
2021/12/12 04:23:39;;;;;;;3.05;2.30;;;21.30;46.90;;;;;;5103144;28;20084;-74
2021/12/12 04:26:20;;;;;;;4.43;2.65;;;21.30;46.80;;;;;;5102873;28;20043;-74
2021/12/12 04:28:57;;;;;;;3.85;2.30;;;21.30;46.80;;;;;;5105427;28;20070;-73
2021/12/12 04:31:23;;;;;;;4.55;2.65;;;21.30;46.80;;;;;;5106574;28;20124;-74
2021/12/12 04:33:49;;;;;;;3.35;2.40;;;21.30;46.90;;;;;;5107368;28;20039;-74
2021/12/12 04:36:15;;;;;;;3.85;2.38;;;21.30;46.80;;;;;;5102274;28;20051;-75
2021/12/12 04:38:41;;;;;;;4.03;2.30;;;21.30;46.70;;;;;;5109243;28;20047;-73
2021/12/12 04:41:06;;;;;;;5.47;2.40;;;21.30;46.70;;;;;;5107211;28;20047;-73
2021/12/12 04:43:32;;;;;;;4.03;2.53;;;21.30;46.70;;;;;;5109416;28;20247;-71
2021/12/12 04:46:10;;;;;;;3.20;2.10;;;21.30;46.70;;;;;;5102638;28;20044;-76
2021/12/12 04:51:41;;;;;;;3.67;2.13;;;21.30;46.70;;;;;;5108070;28;20047;-70
2021/12/12 04:54:21;;;;;;;4.47;2.50;;;21.30;46.70;;;;;;5097637;28;20097;-73
2021/12/12 04:57:00;;;;;;;3.47;2.17;;;21.30;46.70;;;;;;5106592;28;20044;-74
2021/12/12 04:59:48;;;;;;;4.47;2.47;;;21.30;46.70;;;;;;5096638;28;20632;-74
2021/12/12 05:02:13;;;;;;;;;;;21.30;46.60;;;;;;5069559;28;20048;-73
2021/12/12 05:04:52;;;;;;;3.10;2.63;;;21.30;46.60;;;;;;5098802;28;19969;-74
2021/12/12 05:07:53;;;;;;;3.08;1.88;;;21.30;46.60;;;;;;5107344;28;20118;-74
2021/12/12 05:10:35;;;;;;;3.53;2.28;;;21.30;46.60;;;;;;5088616;28;20044;-74
2021/12/12 05:13:19;;;;;;;3.47;2.17;;;21.30;46.60;;;;;;5097622;28;20624;-74
2021/12/12 05:15:49;;;;;;;3.65;2.08;;;21.30;46.60;;;;;;5096887;28;20087;-73
2021/12/12 05:18:36;;;;;;;2.60;1.92;;;21.30;46.60;;;;;;5106495;28;20051;-73
2021/12/12 05:21:11;;;;;;;2.67;1.90;;;21.30;46.60;;;;;;5134436;27;20047;-74
2021/12/12 05:23:43;;;;;;;2.75;2.00;;;21.30;46.60;;;;;;5090812;28;20035;-73
2021/12/12 05:26:17;;;;;;;3.85;2.20;;;21.30;46.70;;;;;;5101752;28;20058;-73
2021/12/12 05:28:48;;;;;;;2.75;1.73;;;21.30;46.60;;;;;;5104589;28;20063;-76
2021/12/12 05:31:16;;;;;;;2.58;1.80;;;21.30;46.60;;;;;;5087464;28;20054;-70
2021/12/12 05:33:42;;;;;;;3.65;1.90;;;21.40;46.70;;;;;;5103904;28;20652;-73
2021/12/12 05:36:09;;;;;;;2.63;1.95;;;21.30;46.60;;;;;;5108017;28;20047;-73
2021/12/12 05:38:36;;;;;;;3.78;1.83;;;21.30;46.70;;;;;;5124761;27;20039;-74
2021/12/12 05:41:03;;;;;;;2.80;1.80;;;21.30;46.70;;;;;;5093188;28;20048;-74
2021/12/12 05:43:30;;;;;;;3.13;1.77;;;21.40;46.80;;;;;;5088146;28;20055;-74
2021/12/12 05:45:56;;;;;;;3.58;2.20;;;21.30;46.70;;;;;;5100028;28;20788;-74
2021/12/12 05:48:21;;;;;;;3.42;2.00;;;21.30;46.70;;;;;;5108110;28;20031;-74
2021/12/12 05:50:49;;;;;;;2.13;1.77;;;21.30;46.70;;;;;;5097395;28;20036;-74
2021/12/12 05:53:15;;;;;;;2.75;1.90;;;21.30;46.70;;;;;;5102155;28;20093;-74
2021/12/12 05:55:42;;;;;;;2.80;1.58;;;21.30;46.70;;;;;;5098481;28;20505;-74
2021/12/12 05:58:11;;;;;;;2.97;1.90;;;21.40;46.70;;;;;;5087214;28;20411;-74
2021/12/12 06:00:43;;;;;;;2.67;1.77;;;21.30;46.70;;;;;;5094491;28;20127;-75
2021/12/12 06:03:12;;;;;;;2.20;1.67;;;21.30;46.70;;;;;;5107107;28;20032;-75
2021/12/12 06:05:38;;;;;;;2.67;1.83;;;21.40;46.80;;;;;;5098401;28;20051;-75
2021/12/12 06:08:05;;;;;;;2.47;1.70;;;21.40;46.80;;;;;;5087535;28;20040;-73
2021/12/12 06:10:34;;;;;;;2.10;1.50;;;21.40;46.80;;;;;;5090768;28;20048;-72
2021/12/12 06:13:00;;;;;;;;;;;21.40;47.10;;;;;;5105485;28;20050;-71
2021/12/12 06:15:28;;;;;;;2.75;1.60;;;21.40;46.80;;;;;;5096290;28;19919;-73
2021/12/12 06:17:55;;;;;;;;;;;21.40;46.70;;;;;;5089110;28;20123;-73
2021/12/12 06:20:21;;;;;;;2.33;1.50;;;21.40;46.80;;;;;;5088917;28;19932;-74
2021/12/12 06:22:48;;;;;;;2.25;1.70;;;21.40;46.70;;;;;;5107404;28;21381;-74
2021/12/12 06:25:17;;;;;;;3.03;1.77;;;21.40;46.80;;;;;;5102806;28;20052;-75
2021/12/12 06:27:42;;;;;;;2.33;1.50;;;21.40;46.80;;;;;;5099052;28;20048;-73
2021/12/12 06:30:12;;;;;;;2.75;1.77;;;21.40;46.80;;;;;;5105758;28;20162;-74
2021/12/12 06:32:39;;;;;;;2.60;1.42;;;21.40;46.80;;;;;;5105227;28;20077;-74
2021/12/12 06:35:07;;;;;;;2.63;1.63;;;21.40;46.80;;;;;;5106032;28;20050;-73
2021/12/12 06:37:33;;;;;;;2.28;1.65;;;21.40;46.80;;;;;;5085395;28;20488;-75
2021/12/12 06:40:00;;;;;;;1.90;1.40;;;21.40;46.80;;;;;;5098176;28;20047;-73
2021/12/12 06:42:27;;;;;;;2.00;1.60;;;21.40;46.90;;;;;;5086792;28;20044;-74
2021/12/12 06:44:54;;;;;;;1.98;1.52;;;21.40;46.90;;;;;;5102430;28;20047;-70
2021/12/12 06:47:20;;;;;;;2.03;1.38;;;21.40;46.80;;;;;;5087492;28;20059;-74
2021/12/12 06:49:46;;;;;;;2.20;1.52;;;21.40;46.80;;;;;;5084659;28;20043;-74
2021/12/12 06:52:14;;;;;;;3.20;1.50;;;21.40;46.90;;;;;;5099947;28;20047;-75
2021/12/12 06:54:41;;;;;;;1.92;1.35;;;21.40;46.80;;;;;;5105675;28;20062;-74
2021/12/12 06:57:10;;;;;;;2.38;1.58;;;21.40;46.80;;;;;;5087669;28;20077;-74
2021/12/12 06:59:39;;;;;;;1.95;1.48;;;21.40;46.80;;;;;;5096985;28;20055;-73
2021/12/12 07:02:07;;;;;;;1.73;1.20;;;21.40;46.90;;;;;;5102598;28;20066;-72
2021/12/12 07:04:34;;;;;;;2.65;1.40;;;21.40;46.90;;;;;;5100303;27;20050;-74
2021/12/12 07:07:03;;;;;;;2.20;1.35;;;21.40;46.90;;;;;;5100354;28;20051;-72
2021/12/12 07:09:33;;;;;;;1.98;1.50;;;21.40;47.00;;;;;;5102421;28;20519;-75
2021/12/12 07:12:04;;;;;;;1.60;1.17;;;21.50;47.00;;;;;;5092934;28;20054;-76
2021/12/12 07:14:31;;;;;;;1.40;1.23;;;21.50;47.00;;;;;;5102842;28;20047;-74
2021/12/12 07:16:57;;;;;;;1.38;1.15;;;21.50;46.90;;;;;;5100738;28;20237;-77
2021/12/12 07:19:23;;;;;;;4.00;1.50;;;21.50;46.90;;;;;;5104203;28;20553;-74
2021/12/12 07:21:49;;;;;;;1.67;1.20;;;21.50;47.00;;;;;;5105039;28;20036;-73
2021/12/12 07:24:17;;;;;;;1.42;1.15;;;21.60;47.00;;;;;;5102836;28;20054;-73
2021/12/12 07:26:43;;;;;;;2.92;1.10;;;21.50;47.00;;;;;;5099003;28;20139;-72
2021/12/12 07:29:09;;;;;;;1.40;1.30;;;21.60;47.00;;;;;;5097967;28;20044;-74
2021/12/12 07:31:37;;;;;;;1.80;1.30;;;21.60;47.00;;;;;;5108222;27;20046;-73
2021/12/12 07:34:08;;;;;;;1.33;1.10;;;21.60;47.00;;;;;;5102612;28;20064;-75
2021/12/12 07:36:37;;;;;;;1.95;1.27;;;21.60;47.00;;;;;;5102290;28;20080;-73
2021/12/12 07:39:13;;;;;;;1.75;1.10;;;21.60;47.00;;;;;;5103722;28;20039;-74
2021/12/12 07:41:42;;;;;;;1.63;1.20;;;21.60;46.90;;;;;;5097469;28;20092;-73
2021/12/12 07:44:10;;;;;;;1.48;1.20;;;21.60;46.90;;;;;;5099483;28;20483;-72
2021/12/12 07:46:37;;;;;;;1.98;1.20;;;21.60;47.00;;;;;;5101329;28;20048;-73
2021/12/12 07:49:04;;;;;;;1.55;1.10;;;21.70;47.00;;;;;;5091092;28;20048;-73
2021/12/12 07:51:31;;;;;;;2.05;1.10;;;21.60;47.10;;;;;;5096543;28;20070;-72
2021/12/12 07:54:00;;;;;;;1.35;1.15;;;21.60;47.00;;;;;;5086513;28;21018;-71
2021/12/12 07:56:29;;;;;;;1.85;1.10;;;21.60;47.00;;;;;;5115851;27;20062;-72
2021/12/12 07:59:00;;;;;;;1.67;1.00;;;21.60;47.00;;;;;;5091648;28;20036;-73
2021/12/12 08:01:27;;;;;;;1.08;0.98;;;21.70;47.20;;;;;;5082633;28;20035;-73
2021/12/12 08:03:56;;;;;;;3.05;1.00;;;21.70;47.10;;;;;;5098415;28;20126;-72
2021/12/12 08:06:24;;;;;;;1.00;0.90;;;21.70;47.10;;;;;;5104653;28;20054;-72
2021/12/12 08:08:51;;;;;;;1.52;1.10;;;21.70;47.00;;;;;;5101610;28;20146;-74
2021/12/12 08:11:27;;;;;;;1.33;1.10;;;21.70;47.00;;;;;;5086125;28;20044;-74
2021/12/12 08:13:54;;;;;;;1.45;1.00;;;21.70;47.00;;;;;;5119661;27;20071;-73
2021/12/12 08:16:21;;;;;;;2.13;1.10;;;21.70;47.00;;;;;;5103314;28;20096;-72
2021/12/12 08:18:48;;;;;;;1.08;0.93;;;21.70;47.00;;;;;;5089064;28;20132;-76
2021/12/12 08:21:14;;;;;;;1.10;1.00;;;21.70;47.00;;;;;;5102884;28;20063;-75
2021/12/12 08:23:41;;;;;;;3.20;1.02;;;21.80;47.10;;;;;;5088290;28;20483;-74
2021/12/12 08:26:09;;;;;;;5.65;1.05;;;21.70;47.10;;;;;;5081541;28;20055;-75
2021/12/12 08:28:35;;;;;;;;;;;21.70;47.30;;;;;;5107459;28;20048;-73
2021/12/12 08:31:02;;;;;;;9.40;3.60;;;21.80;47.60;;;;;;5103906;28;20321;-72
2021/12/12 08:33:29;;;;;;;9.25;3.75;;;21.80;47.70;;;;;;5086572;28;20069;-72
2021/12/12 08:35:56;;;;;;;8.73;4.93;;;21.80;48.10;;;;;;5104259;28;20088;-71
2021/12/12 08:38:23;;;;;;;10.57;4.85;;;21.90;48.30;;;;;;5103575;28;20577;-72
2021/12/12 08:40:52;;;;;;;7.93;4.32;;;21.80;48.40;;;;;;5105158;27;20313;-71
2021/12/12 08:43:21;;;;;;;10.20;5.25;;;21.80;48.50;;;;;;5103521;28;20502;-71
2021/12/12 08:45:51;;;;;;;12.32;4.43;;;21.90;48.70;;;;;;5102764;28;20047;-71
2021/12/12 08:48:20;;;;;;;8.35;4.25;;;21.90;48.80;;;;;;5105517;28;20100;-73
2021/12/12 08:50:49;;;;;;;8.73;4.28;;;21.80;48.80;;;;;;5102355;28;20537;-70
2021/12/12 08:53:16;;;;;;;7.40;4.00;;;21.90;48.90;;;;;;5104820;28;20066;-74
2021/12/12 08:55:44;;;;;;;7.70;3.97;;;21.90;48.90;;;;;;5103052;27;20118;-72
2021/12/12 08:58:15;;;;;;;7.60;4.03;;;21.90;48.90;;;;;;5105062;28;20046;-76
2021/12/12 09:00:59;;;;;;;6.85;3.70;;;21.90;49.00;;;;;;5099654;28;20126;-71
2021/12/12 09:03:55;;;;;;;6.25;3.65;;;21.90;49.00;;;;;;5104950;27;20062;-76
2021/12/12 09:06:31;;;;;;;4.95;3.65;;;21.90;49.00;;;;;;5124834;27;20051;-75
2021/12/12 09:09:20;;;;;;;6.25;3.55;;;21.90;49.10;;;;;;5101194;27;20079;-72
2021/12/12 09:11:59;;;;;;;6.68;3.38;;;21.90;49.10;;;;;;5105373;27;20104;-73
2021/12/12 09:14:39;;;;;;;7.07;3.67;;;21.90;49.10;;;;;;5105661;28;20071;-73
2021/12/12 09:17:21;;;;;;;7.35;3.58;;;21.90;49.10;;;;;;5098176;27;20031;-76
2021/12/12 09:20:23;;;;;;;7.63;3.15;;;21.90;49.20;;;;;;5083799;28;20506;-74
2021/12/12 09:23:14;;;;;;;6.88;2.78;;;21.90;49.30;;;;;;5075185;27;20149;-74
2021/12/12 09:25:50;;;;;;;6.80;3.30;;;21.90;49.50;;;;;;5103956;27;20055;-69
2021/12/12 09:28:43;;;;;;;5.70;3.00;;;22.00;49.40;;;;;;5106320;28;20103;-72
2021/12/12 09:31:32;;;;;;;6.10;3.20;;;21.90;49.40;;;;;;5105357;27;20043;-73
2021/12/12 09:34:08;;;;;;;5.38;2.85;;;22.00;50.30;;;;;;5130780;27;20089;-75
2021/12/12 09:36:43;;;;;;;4.55;2.85;;;21.90;49.50;;;;;;5100035;28;20092;-70
2021/12/12 09:39:12;;;;;;;6.03;2.85;;;21.90;49.50;;;;;;5082778;28;20047;-77
2021/12/12 09:41:55;;;;;;;3.85;2.83;;;22.00;49.60;;;;;;5104113;28;20032;-76
2021/12/12 09:44:39;;;;;;;4.78;2.78;;;21.90;49.60;;;;;;5101173;28;20056;-73
2021/12/12 09:47:59;;;;;;;4.47;2.78;;;21.90;49.60;;;;;;5100489;28;20039;-72
2021/12/12 09:53:56;;;;;;;7.00;2.70;;;22.00;49.80;;;;;;5130863;27;20044;-79
2021/12/12 09:56:56;;;;;;;6.82;2.65;;;22.00;49.80;;;;;;5100541;28;20132;-78
2021/12/12 09:59:52;;;;;;;5.80;2.80;;;22.00;49.80;;;;;;5064201;28;20048;-78
2021/12/12 10:02:43;;;;;;;4.97;2.85;;;22.00;49.80;;;;;;5105229;28;20067;-74
2021/12/12 10:05:51;;;;;;;7.80;2.50;;;22.00;49.80;;;;;;5096387;28;20036;-72
2021/12/12 10:08:42;;;;;;;5.68;2.67;;;22.00;50.60;;;;;;5094362;28;20131;-78
2021/12/12 10:11:41;;;;;;;6.78;2.90;;;22.00;49.90;;;;;;5094002;28;20043;-78
2021/12/12 10:14:31;;;;;;;4.10;2.47;;;21.90;50.00;;;;;;5099707;28;20499;-75
2021/12/12 10:17:36;;;;;;;5.88;2.40;;;22.00;50.00;;;;;;5103420;28;20160;-75
2021/12/12 10:20:33;;;;;;;3.97;2.63;;;22.00;50.20;;;;;;5093280;27;20166;-77
2021/12/12 10:23:27;;;;;;;4.03;2.80;;;22.00;50.10;;;;;;5112583;27;20043;-77
2021/12/12 10:26:11;;;;;;;8.65;2.60;;;21.90;50.00;;;;;;5087345;28;20075;-76
2021/12/12 10:29:03;;;;;;;4.57;2.28;;;22.00;50.10;;;;;;5093026;27;20062;-76
2021/12/12 10:31:52;;;;;;;3.90;2.80;;;21.90;50.00;;;;;;5088560;28;20059;-75
2021/12/12 10:34:28;;;;;;;5.32;2.38;;;22.00;50.10;;;;;;5090969;27;20507;-74
2021/12/12 10:37:23;;;;;;;5.43;2.60;;;21.90;50.10;;;;;;5091627;28;20081;-73
2021/12/12 10:40:03;;;;;;;6.93;2.80;;;22.00;50.20;;;;;;5086535;28;20055;-73
2021/12/12 10:42:42;;;;;;;3.83;2.20;;;21.90;50.10;;;;;;5091726;28;20177;-76
2021/12/12 10:45:18;;;;;;;3.00;2.47;;;21.90;50.20;;;;;;5086746;27;20495;-71
2021/12/12 10:47:54;;;;;;;3.72;2.40;;;21.90;50.20;;;;;;5088262;28;20102;-76
2021/12/12 10:50:38;;;;;;;4.22;2.17;;;21.90;50.20;;;;;;5087345;28;20384;-72
2021/12/12 10:53:20;;;;;;;3.35;2.13;;;21.90;50.20;;;;;;5093753;27;20126;-78
2021/12/12 10:55:57;;;;;;;7.50;2.55;;;21.90;50.30;;;;;;5101633;28;20493;-71
2021/12/12 10:58:40;;;;;;;3.03;2.17;;;21.90;50.20;;;;;;5107864;27;20043;-73
2021/12/12 11:01:14;;;;;;;4.18;2.20;;;21.90;50.50;;;;;;5103413;27;20040;-76
2021/12/12 11:04:12;;;;;;;3.75;2.33;;;21.90;50.20;;;;;;5129719;27;20039;-74
2021/12/12 11:06:43;;;;;;;2.92;2.15;;;21.90;50.20;;;;;;5095117;27;20400;-77
2021/12/12 11:09:27;;;;;;;2.95;2.13;;;21.90;50.30;;;;;;5089594;27;21083;-75
2021/12/12 11:12:23;;;;;;;3.90;2.22;;;21.90;50.30;;;;;;5092923;28;20089;-72
2021/12/12 11:15:15;;;;;;;5.15;2.42;;;21.90;50.30;;;;;;5098735;27;20051;-73
2021/12/12 11:17:48;;;;;;;3.65;2.10;;;21.90;50.40;;;;;;5098683;27;20396;-74
2021/12/12 11:20:21;;;;;;;2.53;1.88;;;21.90;50.20;;;;;;5094111;28;20097;-72
2021/12/12 11:22:51;;;;;;;3.40;2.45;;;21.90;50.20;;;;;;5097440;28;20043;-74
2021/12/12 11:25:43;;;;;;;2.72;2.00;;;21.90;50.30;;;;;;5103496;28;20504;-73
2021/12/12 11:28:19;;;;;;;2.78;1.92;;;21.90;50.10;;;;;;5101000;28;20143;-72
2021/12/12 11:30:57;;;;;;;3.13;2.17;;;21.90;50.10;;;;;;5096135;28;20055;-72
2021/12/12 11:33:25;;;;;;;2.40;2.00;;;21.90;50.00;;;;;;5105379;28;20039;-73
2021/12/12 11:35:55;;;;;;;2.80;2.10;;;21.90;50.00;;;;;;5090713;28;20310;-75
2021/12/12 11:38:30;;;;;;;4.10;2.15;;;21.90;50.00;;;;;;5128247;27;20044;-74
2021/12/12 11:41:16;;;;;;;2.30;1.95;;;21.90;50.10;;;;;;5087138;28;20407;-72
2021/12/12 11:44:07;;;;;;;2.03;1.83;;;21.90;50.10;;;;;;5098647;28;20081;-73
2021/12/12 11:46:39;;;;;;;2.20;2.00;;;21.90;50.10;;;;;;5098556;28;20050;-74
2021/12/12 11:49:22;;;;;;;2.20;1.80;;;21.90;50.10;;;;;;5092469;28;20032;-75
2021/12/12 11:52:10;;;;;;;13.55;6.80;;;21.90;50.30;;;;;;5089058;28;20430;-74
2021/12/12 11:54:54;;;;;;;4.10;2.50;;;21.90;50.50;;;;;;5103736;28;20143;-77
2021/12/12 11:57:25;;;;;;;3.17;2.88;;;21.90;50.70;;;;;;5100226;28;20034;-75
2021/12/12 12:00:02;;;;;;;3.60;2.67;;;21.90;50.60;;;;;;5106969;27;20059;-75
2021/12/12 12:02:44;;;;;;;5.50;2.38;;;21.90;50.80;;;;;;5089105;28;20046;-77
2021/12/12 12:05:52;;;;;;;4.35;2.60;;;21.90;50.80;;;;;;5098525;28;20146;-73
2021/12/12 12:08:55;;;;;;;2.55;2.20;;;21.90;50.80;;;;;;5100407;28;20047;-72
2021/12/12 12:11:49;;;;;;;4.47;2.42;;;21.90;50.90;;;;;;5094127;28;20588;-77
2021/12/12 12:14:49;;;;;;;3.00;1.88;;;21.90;50.90;;;;;;5097156;28;20059;-76
2021/12/12 12:17:30;;;;;;;2.42;2.22;;;21.90;50.90;;;;;;5080705;28;20040;-76
2021/12/12 12:20:12;;;;;;;5.80;2.17;;;21.90;50.90;;;;;;5090601;28;20047;-72
2021/12/12 12:23:01;;;;;;;3.78;2.10;;;21.90;51.10;;;;;;5132170;27;20086;-72
2021/12/12 12:26:50;;;;;;;2.53;2.20;;;21.90;51.10;;;;;;5126849;27;20398;-70
2021/12/12 12:28:17;;;;;;;3.17;2.25;;;21.90;51.10;;;;;;5102152;28;20039;-75
2021/12/12 12:31:24;;;;;;;4.15;2.08;;;21.90;51.10;;;;;;5093622;28;20044;-74
2021/12/12 12:34:23;;;;;;;28.48;8.23;;;21.90;51.10;;;;;;5096948;28;20491;-74
2021/12/12 12:37:26;;;;;;;19.27;5.22;;;21.90;51.10;;;;;;5100325;28;20104;-72
2021/12/12 12:40:48;;;;;;;11.75;4.63;;;21.90;50.90;;;;;;5096370;28;20065;-71
2021/12/12 12:43:33;;;;;;;10.52;3.55;;;21.90;50.80;;;;;;5100232;28;20051;-75
2021/12/12 12:46:35;;;;;;;10.05;3.50;;;21.90;50.90;;;;;;5098512;28;20032;-70
2021/12/12 12:49:49;;;;;;;9.70;3.40;;;21.90;51.00;;;;;;5123718;27;20054;-76
2021/12/12 12:52:58;;;;;;;13.43;3.53;;;21.90;50.90;;;;;;5100902;28;20035;-70
2021/12/12 12:56:08;;;;;;;9.20;3.05;;;21.90;51.10;;;;;;5104744;27;20075;-73
2021/12/12 12:59:17;;;;;;;8.00;3.13;;;21.90;51.10;;;;;;5086901;27;20051;-74
2021/12/12 13:02:05;;;;;;;10.27;2.90;;;21.90;51.10;;;;;;5103126;28;20040;-73
2021/12/12 13:05:03;;;;;;;7.22;2.72;;;21.90;51.10;;;;;;5103647;27;20050;-73
2021/12/12 13:07:48;;;;;;;;;;;21.90;51.10;;;;;;5105626;28;20047;-78
2021/12/12 13:10:23;;;;;;;7.32;2.85;;;21.90;51.10;;;;;;5101819;27;19934;-80
2021/12/12 13:13:22;;;;;;;9.05;2.53;;;21.80;51.10;;;;;;5106391;28;20036;-76
2021/12/12 13:15:54;;;;;;;10.77;2.90;;;21.90;51.40;;;;;;5102005;28;20074;-76
2021/12/12 13:18:32;;;;;;;7.50;3.05;;;21.90;51.30;;;;;;5106420;28;20134;-73
2021/12/12 13:21:19;;;;;;;8.57;2.70;;;21.90;51.40;;;;;;5099535;28;20055;-76
2021/12/12 13:24:04;;;;;;;9.23;2.85;;;21.80;51.30;;;;;;5101439;28;20106;-76
2021/12/12 13:26:35;;;;;;;7.68;2.50;;;21.90;51.50;;;;;;5102597;27;20051;-78
2021/12/12 13:29:19;;;;;;;9.52;2.92;;;21.80;51.40;;;;;;5100279;28;20128;-79
2021/12/12 13:31:58;;;;;;;8.38;3.05;;;21.80;51.50;;;;;;5098666;27;20055;-75
2021/12/12 13:34:38;;;;;;;7.30;2.47;;;21.80;52.30;;;;;;5101457;27;20453;-80
2021/12/12 13:37:30;;;;;;;8.45;2.60;;;21.80;51.60;;;;;;5126772;27;20044;-75
2021/12/12 13:40:27;;;;;;;7.15;2.60;;;21.80;51.70;;;;;;5106147;28;20097;-73
2021/12/12 13:43:19;;;;;;;6.93;2.53;;;21.80;51.80;;;;;;5100715;27;20858;-77
2021/12/12 13:45:59;;;;;;;13.38;2.63;;;21.80;51.80;;;;;;5101528;28;20114;-73
2021/12/12 13:48:47;;;;;;;7.68;2.50;;;21.80;51.90;;;;;;5103226;27;20066;-78